x

Portland 12 Nm Southeast Of Portland,me (44007) Wave Buoy

1:50 - Mon 27th Mar 2017 All times are EDT. -4 hours from GMT.

  • Sig Wave height 1.6ft
  • Swell Direction
  • Peak Period 5s
  • Average Period 4s
  • Wind
    9mph, 13mph gusts
  • Sea Temp 38°f
  • Luft Temp 36°f
  • Sea Pressure 1029.2mb
  • Portland 12 Nm Southeast Of Portland,me
  • Portland 12 Nm Southeast Of Portland,me

More Historic Weather Station data

Upgrade to MSW Pro to gain access to the past 30 days of data for over 8000 Wavebouys and Weather Stations around the globe.

Join Pro

Comparision Forecast

View Surf forecast
   
Mo 03/27 1:50 1.6ft 5s 4s 9 13 mph 1029.2mb 38f 36f
12:50 1.6ft 19s 4s 9 11 mph 1030.2mb 38f 36f
So 03/26 11:50 2ft 17s 4s 11 13 mph 1030.4mb 38f 36f
10:50 2ft 17s 5s 11
mph
1030.8mb 38f 35f
9:50 1.6ft 7s 5s 9 11 mph 1031.3mb 38f 35f
8:50 2ft 8s 5s 9 11 mph 1032.2mb 38f 35f
7:50 2ft 8s 5s 9 11 mph 1032.8mb 38f 35f
6:50 2ft 8s 5s 11 13 mph 1033.3mb 38f 34f
5:50 2.5ft 7s 5s 11 13 mph 1033.5mb 38f 34f
4:50 2.5ft 8s 5s 9 11 mph 1033.6mb 38f 33f
3:50 2.5ft 8s 5s 9 11 mph 1033.5mb 38f 33f
2:50 2.5ft 6s 5s 9 13 mph 1034.3mb 38f 32f
1:50 2.5ft 5s 4s 7 9 mph 1035.3mb 38f 31f
12:50 2.5ft 9s 4s 9 11 mph 1035.4mb 38f 31f
11:50 2.5ft 9s 4s 11 13 mph 1035.6mb 38f 30f
10:50 2.5ft 4s 4s 13 16 mph 1036mb 38f 31f
9:50 2.5ft 4s 4s 13 16 mph 1035.6mb 38f 31f
8:50 2.5ft 3s 4s 18 20 mph 1034.8mb 38f 31f
7:50 2.5ft 4s 4s 18 22 mph 1034.8mb 38f 31f
6:50 2.5ft 3s 3s 18 22 mph 1034.2mb 38f 32f
5:50 1.6ft 8s 3s 20 25 mph 1033.1mb 38f 33f
4:50 1.3ft 8s 4s 13 16 mph 1033.1mb 38f 33f
3:50 1.6ft 9s 4s 11 13 mph 1032.6mb 38f 33f
2:50 2ft 8s 4s 13 16 mph 1032mb 38f 34f
1:50 2ft 3s 4s 16 20 mph 1030.9mb 38f 35f
12:50 2ft 8s 4s 18 20 mph 1030.4mb 38f 36f
Sa 03/25 11:50 2ft 8s 4s 20 22 mph 1029.7mb 38f 37f
10:50 2ft 8s 5s 16 18 mph 1029.2mb 38f 38f
9:50 1.6ft 7s 7s 13 18 mph 1028.6mb 38f 38f
8:50 1.6ft 9s 6s 9
mph
1028.1mb 38f 39f
7:50 1.3ft 9s 5s 7
mph
1027mb 38f 39f
6:50 1.3ft 8s 4s 9 11 mph 1026mb 38f 38f
5:50 1.3ft 6s 5s 11 13 mph 1025.7mb 38f 38f
4:50 1.3ft 6s 5s 7 9 mph 1025.3mb 39f 38f
3:50 1.6ft 6s 5s 2 4 mph 1025.1mb 38f 39f
2:50 1.6ft 6s 5s  -  mph 1025.1mb 38f 39f
1:50 1.6ft 6s 5s 4
mph
1025.1mb 38f 38f
12:50 1.6ft 6s 5s 7
mph
1024.6mb 38f 38f
11:50 1.6ft 6s 5s 9
mph
1023.7mb 38f 37f
10:50 2.5ft 6s 4s 9 11 mph 1024.1mb 38f 37f
9:50 2.5ft 6s 4s 11 13 mph 1023.3mb 38f 37f
8:50 2.5ft 6s 5s 9 11 mph 1022.8mb 38f 37f
7:50 2.5ft 7s 5s 11 13 mph 1021.5mb 38f 36f
6:50 2.5ft 7s 5s 9 11 mph 1020.5mb 38f 36f
5:50 3ft 7s 5s 9 11 mph 1019.7mb 38f 36f
4:50 3ft 7s 5s 9 11 mph 1019mb 38f 36f
3:50 3.5ft 7s 6s 11 13 mph 1018.1mb 38f 36f
2:50 4ft 7s 6s 9 11 mph 1017.8mb 38f 35f
1:50 3.5ft 7s 5s 9 11 mph 1018mb 38f 36f
12:50 4ft 7s 5s 9 11 mph 1017.6mb 38f 36f
Fr 03/24 11:50 4.5ft 7s 6s 11 13 mph 1017.5mb 38f 36f
10:50 4.5ft 7s 5s 11 13 mph 1017.5mb 38f 37f
9:50 5ft 7s 6s 9
mph
1018mb 38f 37f
8:50 5.5ft 7s 5s 7 9 mph 1018.1mb 38f 38f
7:50 5.5ft 7s 5s 16 18 mph 1018.2mb 38f 39f
6:50 6ft 7s 5s 20 25 mph 1018.3mb 38f 38f
5:50 6ft 7s 5s 22 27 mph 1019.4mb 38f 36f
4:50 5ft 6s 5s 20 25 mph 1021.2mb 38f 35f
3:50 5ft 6s 5s 25 29 mph 1021.6mb 38f 35f
2:50 4.5ft 6s 4s 22 27 mph 1023.6mb 38f 34f
1:50 4ft 5s 4s 25 29 mph 1025.3mb 38f 34f
12:50 4ft 5s 4s 18 22 mph 1027.3mb 38f 32f
11:50 4ft 4s 4s 27 31 mph 1029.3mb 38f 32f
10:50 3.5ft 4s 4s 22 27 mph 1029.3mb 38f 36f
9:50 2.5ft 4s 3s 20 25 mph 1030.4mb 38f 36f
8:50 1.6ft 3s 3s 18 22 mph 1031mb 38f 35f
7:50 1ft 3s 3s 18 20 mph 1031.3mb 37f 34f
6:50 1ft 2s 3s 13 16 mph 1032.4mb 37f 34f
5:50 0.7ft  -  5s 13 16 mph 1032.8mb 37f 33f
4:50 0.7ft  -  5s 9
mph
1032.8mb 37f 32f
3:50 0.7ft  -  5s 4 7 mph 1032.7mb 37f 31f
2:50 0.7ft  -  5s  -  2 mph 1032.9mb 37f 30f
1:50 0.7ft  -  4s 4 7 mph 1034.1mb 37f 30f
12:50 0.7ft  -  4s 9 11 mph 1034mb 37f 30f
Do 03/23 11:50 1ft 11s 3s 11 13 mph 1033.1mb 38f 30f
10:50 1ft 3s 3s 16 18 mph 1033mb 38f 31f
9:50 1ft 3s 3s 13 18 mph 1032.8mb 38f 31f
8:50 1.3ft 3s 3s 11 13 mph 1032.2mb 38f 32f
7:50 1.3ft 3s 3s 13 16 mph 1030.8mb 38f 33f
6:50 1.6ft 3s 3s 20 25 mph 1029.6mb 38f 34f
5:50 1.6ft 3s 3s 18 25 mph 1028.8mb 38f 34f
4:50 1ft 2s 3s 16 20 mph 1028.3mb 38f 34f
3:50 1ft 3s 3s 16 20 mph 1028.3mb 38f 32f
2:50 1ft 11s 3s 9 11 mph 1028.6mb 38f 30f
1:50 1.3ft 11s 3s 13 18 mph 1028.9mb 38f 28f
12:50 1.3ft 11s 3s 16 20 mph 1029.5mb 38f 26f
11:50 1.3ft 3s 3s 11 16 mph 1029.9mb 38f 24f
10:50 2ft 3s 3s 20 27 mph 1029.9mb 38f 22f
9:50 2ft 3s 3s 25 31 mph 1029.8mb 38f 21f
8:50 2ft 3s 3s 20 25 mph 1029.6mb 38f 19f
7:50 1.6ft 3s 3s 20 27 mph 1029.4mb 38f 18f
6:50 1.6ft 3s 3s 20 25 mph 1028.7mb 38f 18f